Time;durP1;ratioP1;P1;durP2;ratioP2;P2;SDS_P1;SDS_P2;PMS_P1;PMS_P2;Temp;Humidity;BMP_temperature;BMP_pressure;BME280_temperature;BME280_humidity;BME280_pressure;Samples;Min_cycle;Max_cycle;Signal;HPM_P1;HPM_P2
2023/04/06 00:03:09;;;;;;;;;;;;;;;-1.28;50.58;101584.11;107717;1264;71259;-88
2023/04/06 00:06:36;;;;;;;;;;;;;;;-1.28;50.58;101582.88;107723;1264;60405;-87
2023/04/06 00:10:02;;;;;;;;;;;;;;;-1.27;50.53;101578.88;107546;1270;60374;-88
2023/04/06 00:13:29;;;;;;;;;;;;;;;-1.26;50.51;101581.15;107244;1277;72198;-88
2023/04/06 00:16:55;;;;;;;;;;;;;;;-1.30;50.60;101581.60;107254;1277;68167;-88
2023/04/06 00:20:22;;;;;;;;;;;;;;;-1.30;50.63;101580.95;107225;1276;72150;-87
2023/04/06 00:23:49;;;;;;;;;;;;;;;-1.32;50.66;101578.67;107220;1276;60316;-87
2023/04/06 00:27:15;;;;;;;;;;;;;;;-1.36;50.53;101578.80;107219;1275;59097;-87
2023/04/06 00:30:41;;;;;;;;;;;;;;;-1.40;50.71;101573.54;106772;1285;75688;-88
2023/04/06 00:34:08;;;;;;;;;;;;;;;-1.42;50.70;101574.79;106657;1282;67018;-88
2023/04/06 00:37:34;;;;;;;;;;;;;;;-1.46;50.80;101574.92;105812;1288;71392;-88
2023/04/06 00:41:01;;;;;;;;;;;;;;;-1.50;50.92;101575.10;106404;1287;60350;-87
2023/04/06 00:44:27;;;;;;;;;;;;;;;-1.57;50.90;101578.66;106476;1288;59620;-88
2023/04/06 00:47:54;;;;;;;;;;;;;;;-1.66;50.94;101576.88;106170;1284;75132;-88
2023/04/06 00:51:20;;;;;;;;;;;;;;;-1.74;51.07;101577.67;106680;1280;67045;-88
2023/04/06 00:54:47;;;;;;;;;;;;;;;-1.73;51.17;101574.86;106711;1279;71271;-88
2023/04/06 00:58:15;;;;;;;;;;;;;;;-1.70;51.13;101573.34;106709;1279;60474;-87
2023/04/06 01:01:41;;;;;;;;;;;;;;;-1.69;51.21;101573.17;106701;1279;60359;-87
2023/04/06 01:05:08;;;;;;;;;;;;;;;-1.69;51.17;101576.93;106686;1279;72562;-87
2023/04/06 01:08:35;;;;;;;;;;;;;;;-1.70;51.13;101571.28;106452;1282;70008;-88
2023/04/06 01:12:01;;;;;;;;;;;;;;;-1.72;51.27;101568.48;106552;1281;75187;-87
2023/04/06 01:15:31;;;;;;;;;;;;;;;-1.72;51.26;101571.54;106836;1277;61246;-88
2023/04/06 01:18:57;;;;;;;;;;;;;;;-1.75;51.34;101574.92;106015;1286;63262;-88
2023/04/06 01:53:31;;;;;;;;;;;;;;;-2.18;51.89;101578.01;107943;1267;72546;-87
2023/04/06 01:56:59;;;;;;;;;;;;;;;-2.14;51.86;101576.69;107768;1264;58978;-87
2023/04/06 02:00:25;;;;;;;;;;;;;;;-2.10;51.98;101574.88;107814;1264;60716;-87
2023/04/06 02:03:52;;;;;;;;;;;;;;;-2.10;52.01;101574.19;107804;1263;75081;-86
2023/04/06 02:07:18;;;;;;;;;;;;;;;-2.11;51.98;101572.14;107807;1266;68610;-87
2023/04/06 02:10:45;;;;;;;;;;;;;;;-2.11;51.94;101572.80;107835;1263;71260;-88
2023/04/06 02:14:11;;;;;;;;;;;;;;;-2.22;51.92;101574.60;107828;1265;60349;-88
2023/04/06 02:17:38;;;;;;;;;;;;;;;-2.37;52.00;101574.02;107278;1274;60531;-88
2023/04/06 02:21:06;;;;;;;;;;;;;;;-2.46;52.15;101567.81;107060;1276;73069;-88
2023/04/06 02:24:32;;;;;;;;;;;;;;;-2.42;52.16;101564.64;106966;1275;70987;-88
2023/04/06 02:30:32;;;;;;;;;;;;;;;-2.35;52.16;101568.41;107922;1263;59091;-88
2023/04/06 02:33:35;;;;;;;;;;;;;;;-2.34;52.13;101565.40;107955;1264;59228;-87
2023/04/06 02:37:03;;;;;;;;;;;;;;;-2.37;52.18;101565.71;107847;1263;72377;-88
2023/04/06 02:40:29;;;;;;;;;;;;;;;-2.41;52.26;101566.02;107796;1266;69178;-87
2023/04/06 02:43:56;;;;;;;;;;;;;;;-2.50;52.35;101568.95;107905;1262;73122;-87
2023/04/06 02:49:32;;;;;;;;;;;;;;;-2.77;52.51;101571.95;107938;1267;70852;-87
2023/04/06 02:52:58;;;;;;;;;;;;;;;-2.71;52.48;101576.50;107887;1264;72303;-87
2023/04/06 02:56:26;;;;;;;;;;;;;;;-2.65;52.45;101574.91;107733;1267;68396;-87
2023/04/06 02:59:51;;;;;;;;;;;;;;;-2.61;52.61;101578.65;107753;1264;71390;-88
2023/04/06 03:03:18;;;;;;;;;;;;;;;-2.56;52.57;101579.27;107950;1264;60327;-87
2023/04/06 03:06:44;;;;;;;;;;;;;;;-2.55;52.53;101579.80;107803;1264;60766;-87
2023/04/06 03:10:11;;;;;;;;;;;;;;;-2.58;52.56;101582.21;107849;1264;76670;-87
2023/04/06 03:13:38;;;;;;;;;;;;;;;-2.62;52.56;101582.50;108136;1267;67072;-87
2023/04/06 03:17:04;;;;;;;;;;;;;;;-2.63;52.65;101589.19;107814;1264;72424;-87
2023/04/06 03:20:30;;;;;;;;;;;;;;;-2.70;52.62;101589.69;107806;1267;59192;-87
2023/04/06 03:39:43;;;;;;;;;;;;;;;-2.81;52.94;101599.23;107900;1264;73426;-88
2023/04/06 03:43:10;;;;;;;;;;;;;;;-2.82;52.92;101603.55;107364;1269;68989;-88
2023/04/06 03:46:36;;;;;;;;;;;;;;;-2.78;53.03;101610.54;107348;1273;75187;-87
2023/04/06 03:57:16;;;;;;;;;;;;;;;-2.76;52.89;101615.02;107932;1264;67393;-87
2023/04/06 04:10:26;;;;;;;;;;;;;;;-2.87;53.16;101619.45;107953;1264;67499;-87
2023/04/06 05:11:40;;;;;;;;;;;;;;;-2.54;54.33;101625.11;107963;1263;60368;-87
2023/04/06 05:14:40;;;;;;;;;;;;;;;-2.29;54.42;101623.40;108091;1262;73808;-87
2023/04/06 05:18:06;;;;;;;;;;;;;;;-2.02;54.31;101627.28;107359;1270;67277;-87
2023/04/06 05:21:35;;;;;;;;;;;;;;;-1.77;54.49;101629.41;107355;1270;70035;-87
2023/04/06 05:24:39;;;;;;;;;;;;;;;-1.58;54.41;101638.80;108066;1262;60526;-87
2023/04/06 05:49:00;;;;;;;;;;;;;;;1.25;54.71;101642.11;108227;1262;72433;-87
2023/04/06 06:17:42;;;;;;;;;;;;;;;5.98;54.24;101618.34;108000;1264;59139;-87
2023/04/06 06:20:41;;;;;;;;;;;;;;;6.60;54.22;101618.73;108067;1262;71730;-88
2023/04/06 06:24:09;;;;;;;;;;;;;;;7.47;54.34;101617.39;107939;1266;72256;-88
2023/04/06 06:27:04;;;;;;;;;;;;;;;8.31;54.26;101614.52;108265;1265;75887;-88
2023/04/06 07:13:51;;;;;;;;;;;;;;;16.51;52.81;101619.10;108151;1263;72967;-89
2023/04/06 07:42:39;;;;;;;;;;;;;;;19.52;52.43;101613.91;108042;1262;73261;-89
2023/04/06 08:24:25;;;;;;;;;;;;;;;25.06;48.64;101602.60;108094;1263;71848;-90
2023/04/06 08:32:59;;;;;;;;;;;;;;;24.79;49.09;101594.90;108135;1263;70510;-90
2023/04/06 08:36:29;;;;;;;;;;;;;;;24.45;48.66;101591.10;107988;1262;76266;-88
2023/04/06 09:21:09;;;;;;;;;;;;;;;9.34;44.72;101590.64;108354;1263;72113;-88
2023/04/06 10:42:22;;;;;;;;;;;;;;;7.29;42.81;101557.64;109153;1264;71044;-88
2023/04/06 10:45:48;;;;;;;;;;;;;;;7.29;42.72;101547.00;109124;1264;59219;-88
2023/04/06 10:49:15;;;;;;;;;;;;;;;7.34;42.81;101546.36;109137;1268;58747;-86
2023/04/06 10:52:40;;;;;;;;;;;;;;;7.36;42.79;101548.80;109057;1265;73248;-86
2023/04/06 10:56:06;;;;;;;;;;;;;;;7.30;42.66;101547.52;109064;1265;67334;-86
2023/04/06 10:59:32;;;;;;;;;;;;;;;7.30;42.76;101542.90;108710;1268;71055;-86
2023/04/06 11:02:58;;;;;;;;;;;;;;;7.41;42.79;101540.98;108771;1268;59017;-86
2023/04/06 11:06:22;;;;;;;;;;;;;;;;;;;;;
2023/04/06 11:09:47;;;;;;;;;;;;;;;7.48;42.72;101536.59;108847;1268;74354;-89
2023/04/06 11:13:24;;;;;;;;;;;;;;;;;;;;;
2023/04/06 11:16:39;;;;;;;;;;;;;;;7.33;42.78;101529.04;108421;1274;71817;-89
2023/04/06 11:20:06;;;;;;;;;;;;;;;7.36;42.74;101518.27;108472;1274;59470;-89
2023/04/06 11:23:32;;;;;;;;;;;;;;;7.43;42.86;101524.70;107901;1279;58696;-89
2023/04/06 11:27:00;;;;;;;;;;;;;;;7.48;42.68;101519.61;108079;1280;73304;-89
2023/04/06 11:30:28;;;;;;;;;;;;;;;7.47;42.62;101513.42;108120;1279;67328;-89
2023/04/06 11:33:55;;;;;;;;;;;;;;;7.44;42.63;101513.05;108064;1279;72814;-89
2023/04/06 13:10:30;;;;;;;;;;;;;;;7.78;42.89;101421.58;109124;1263;59796;-88
2023/04/06 17:44:25;;;;;;;;;;;;;;;6.92;43.38;101320.46;109127;1264;71261;-88
2023/04/06 17:47:54;;;;;;;;;;;;;;;6.82;43.52;101321.21;108533;1273;59028;-88
2023/04/06 17:51:20;;;;;;;;;;;;;;;6.73;43.49;101321.31;108554;1272;59573;-89
2023/04/06 17:54:47;;;;;;;;;;;;;;;6.61;43.60;101324.45;108560;1273;74260;-88
2023/04/06 17:58:13;;;;;;;;;;;;;;;6.50;43.65;101324.30;108546;1273;68373;-88
2023/04/06 18:01:40;;;;;;;;;;;;;;;6.40;43.69;101325.04;108559;1273;73178;-88
2023/04/06 18:05:06;;;;;;;;;;;;;;;6.28;43.71;101324.20;108536;1273;59010;-88
2023/04/06 18:08:32;;;;;;;;;;;;;;;6.17;43.74;101324.08;107899;1284;58969;-88
2023/04/06 18:12:00;;;;;;;;;;;;;;;6.08;43.79;101327.73;107905;1279;73259;-88
2023/04/06 18:15:25;;;;;;;;;;;;;;;5.98;43.89;101327.08;103699;1279;5572071;-88
2023/04/06 18:18:52;;;;;;;;;;;;;;;5.91;43.96;101328.17;107881;1279;72989;-88
2023/04/06 18:22:28;;;;;;;;;;;;;;;;;;;;;
2023/04/06 18:25:45;;;;;;;;;;;;;;;5.79;44.06;101332.58;108614;1271;59750;-89
2023/04/06 18:29:11;;;;;;;;;;;;;;;5.73;44.18;101328.90;108650;1271;74660;-87
2023/04/06 18:32:37;;;;;;;;;;;;;;;5.65;44.19;101329.83;108621;1271;68314;-86
2023/04/06 18:36:03;;;;;;;;;;;;;;;5.57;44.23;101335.51;108625;1271;72497;-86
2023/04/06 18:39:29;;;;;;;;;;;;;;;5.55;44.32;101336.67;108644;1273;58769;-87
2023/04/06 18:42:37;;;;;;;;;;;;;;;5.46;44.38;101339.27;108607;1271;59714;-86
2023/04/06 18:45:42;;;;;;;;;;;;;;;5.43;44.52;101337.16;109022;1264;74528;-86
2023/04/06 18:56:55;;;;;;;;;;;;;;;5.37;44.61;101335.52;109173;1264;59847;-88
